Pagrindinis puslapis
METAR-TAF:

METAR-TAF

Oro uostai :

Rio Grandė, Argentina

platuma: 53-48S, ilguma: 067-45W, Aukštis: 13 m

Dabartinis oras

Ataskaita buvo paskelbta 41 minutes, ne 21:00 UTC
Vėjas 23 kt iš Vakarų/Pietvakarių su gūsio iki 35 kt
Temperatūra 13°C
Drėgmė 44%
Slėgis 999 hPa
Matomumas 10 km arba daugiau
Mažai debesys ne aukštis 2500 ft

METAR: SAWE 102100Z 25023G35KT 9999 FEW025 13/01 Q0999

Laikas: 18:41 (21:41 UTC)

Prognozė

Ataskaita buvo paskelbta 4 valandos ir 41 minutes, ne 17:00 UTC
Prognozė galioja nuo 10 metu 18 UTC su 11 metu 18 UTC
Vėjas 20 kt iš Vakarų/Pietvakarių su gūsio iki 30 kt
Matomumas 10 km arba daugiau
Išsisklaidę debesys ne aukštis 2000 ft
Išsisklaidę debesys ne aukštis 4000 ft
Tapsmas
nuo 11 metu 00 UTC su 11 metu 02 UTC
Vėjas 7 kt nuo kintamojo kryptimis
Su prošvaistėmis ne aukštis 2000 ft
Su prošvaistėmis ne aukštis 3000 ft

TAF: SAWE 101700Z 1018/1118 25020G30KT 9999 SCT020 SCT040 TX15/1019Z TN05/1110Z BECMG 1100/1102 VRB07KT BKN020 BKN030

Orai ataskaitas ir orų prognozės (METAR, TAF).

turimą stotys yra geltonos ir raudonos taškus žemėlapyje.

Perkelti pele per norėdami pamatyti stoties vardą.

Tada spustelėkite, norėdami matyti oro stebėjimo ir prognozės.

Norėdami pakeisti žemėlapį: spustelėkite ant žalios mygtukų su juodo kryžiaus žemyn,; žalią mygtuką su brūkšneliu, jei norite nutolinti; arba žalių rodyklių gretimoms žemėlapius.


METAR-TAF: